Time;durP1;ratioP1;P1;durP2;ratioP2;P2;SDS_P1;SDS_P2;PMS_P1;PMS_P2;Temp;Humidity;BMP_temperature;BMP_pressure;BME280_temperature;BME280_humidity;BME280_pressure;Samples;Min_cycle;Max_cycle;Signal;HPM_P1;HPM_P2
2022/10/19 00:01:52;;;;;;;9.98;3.30;;;11.10;99.90;;;;;;5061458;28;20044;-81
2022/10/19 00:04:18;;;;;;;8.63;3.08;;;11.00;99.90;;;;;;5060484;28;20182;-80
2022/10/19 00:06:44;;;;;;;6.32;2.78;;;10.90;99.90;;;;;;5031739;28;20045;-82
2022/10/19 00:09:16;;;;;;;5.82;2.63;;;10.90;99.90;;;;;;5057513;28;20047;-81
2022/10/19 00:11:44;;;;;;;12.65;2.97;;;10.80;99.90;;;;;;5044228;28;20048;-82
2022/10/19 00:14:14;;;;;;;6.75;2.83;;;10.70;99.90;;;;;;5057721;28;20061;-81
2022/10/19 00:16:40;;;;;;;6.03;2.97;;;10.60;99.90;;;;;;5044160;28;20088;-82
2022/10/19 00:19:10;;;;;;;6.63;2.80;;;10.60;99.90;;;;;;5059903;28;20634;-82
2022/10/19 00:21:37;;;;;;;5.43;2.75;;;10.60;99.90;;;;;;5057207;28;20037;-82
2022/10/19 00:24:04;;;;;;;8.00;3.03;;;10.50;99.90;;;;;;5058830;28;20044;-82
2022/10/19 00:26:30;;;;;;;6.50;2.47;;;10.40;99.90;;;;;;5043617;28;20044;-82
2022/10/19 00:28:56;;;;;;;8.07;2.47;;;10.40;99.90;;;;;;5042493;28;20053;-82
2022/10/19 00:31:22;;;;;;;5.47;2.22;;;10.40;99.90;;;;;;5044000;28;20051;-82
2022/10/19 00:33:48;;;;;;;7.63;2.42;;;10.30;99.90;;;;;;5040468;28;20527;-82
2022/10/19 00:36:20;;;;;;;6.72;2.20;;;10.30;99.90;;;;;;5044454;28;20045;-82
2022/10/19 00:38:45;;;;;;;6.85;2.25;;;10.30;99.90;;;;;;5041952;28;20060;-82
2022/10/19 00:41:11;;;;;;;7.45;1.90;;;10.30;99.90;;;;;;5044259;28;20376;-82
2022/10/19 00:43:57;;;;;;;4.65;1.92;;;10.30;99.90;;;;;;5061435;28;20037;-82
2022/10/19 00:46:23;;;;;;;5.70;2.00;;;10.30;99.90;;;;;;5059731;28;20040;-82
2022/10/19 00:48:53;;;;;;;6.82;2.10;;;10.20;99.90;;;;;;5060864;28;20090;-82
2022/10/19 00:51:19;;;;;;;3.92;1.98;;;10.20;99.90;;;;;;5044453;28;20032;-82
2022/10/19 00:53:45;;;;;;;6.25;1.90;;;10.10;99.90;;;;;;5065393;28;20048;-81
2022/10/19 00:56:14;;;;;;;5.05;2.03;;;10.10;99.90;;;;;;5059842;28;20090;-81
2022/10/19 00:58:41;;;;;;;7.75;2.10;;;10.00;99.90;;;;;;5060587;28;20052;-82
2022/10/19 01:01:10;;;;;;;6.07;1.60;;;9.90;99.90;;;;;;5043595;28;20381;-82
2022/10/19 01:03:36;;;;;;;5.80;1.98;;;10.00;99.90;;;;;;5060635;28;20106;-82
2022/10/19 01:06:02;;;;;;;5.63;1.95;;;9.90;99.90;;;;;;5064604;28;20040;-82
2022/10/19 01:08:28;;;;;;;7.38;2.13;;;9.90;99.90;;;;;;5063492;28;20037;-82
2022/10/19 01:11:31;;;;;;;10.57;2.20;;;9.90;99.90;;;;;;5045987;28;20543;-83
2022/10/19 01:14:08;;;;;;;5.32;1.77;;;9.90;99.90;;;;;;5063800;28;20072;-82
2022/10/19 01:17:04;;;;;;;4.88;1.80;;;9.80;99.90;;;;;;5046291;28;20090;-82
2022/10/19 01:19:48;;;;;;;4.03;2.15;;;9.90;99.90;;;;;;5042424;28;22042;-82
2022/10/19 01:22:50;;;;;;;6.85;2.10;;;9.90;99.90;;;;;;5065811;28;20037;-82
2022/10/19 01:25:41;;;;;;;9.98;2.03;;;9.90;99.90;;;;;;5063033;28;20162;-82
2022/10/19 01:28:09;;;;;;;6.60;1.98;;;10.00;99.90;;;;;;5063392;28;20147;-82
2022/10/19 01:30:35;;;;;;;6.13;1.58;;;10.10;99.90;;;;;;5068005;28;20036;-83
2022/10/19 01:33:21;;;;;;;5.68;1.60;;;10.00;99.90;;;;;;5042892;28;20139;-82
2022/10/19 01:35:56;;;;;;;5.88;1.60;;;10.10;99.90;;;;;;5046530;28;20546;-81
2022/10/19 01:38:33;;;;;;;8.20;1.98;;;10.20;99.90;;;;;;5062593;28;20101;-82
2022/10/19 01:41:22;;;;;;;6.10;2.00;;;10.20;99.90;;;;;;5044201;28;20051;-82
2022/10/19 01:44:00;;;;;;;9.73;2.30;;;10.20;99.90;;;;;;5057746;28;20178;-81
2022/10/19 01:46:46;;;;;;;6.28;2.13;;;10.30;99.90;;;;;;5049201;28;20136;-82
2022/10/19 01:49:45;;;;;;;8.48;2.50;;;10.20;99.90;;;;;;5066228;28;20598;-82
2022/10/19 01:52:16;;;;;;;6.43;2.33;;;10.30;99.90;;;;;;5065388;28;20040;-81
2022/10/19 01:54:46;;;;;;;8.82;2.60;;;10.40;99.90;;;;;;5059924;28;20043;-82
2022/10/19 01:57:15;;;;;;;5.22;2.33;;;10.40;99.90;;;;;;5046541;28;20654;-82
2022/10/19 01:59:42;;;;;;;5.78;2.33;;;10.40;99.90;;;;;;5064399;28;20119;-82
2022/10/19 02:02:12;;;;;;;10.32;2.58;;;10.50;99.90;;;;;;5066585;28;20388;-82
2022/10/19 02:04:39;;;;;;;6.10;2.45;;;10.50;99.90;;;;;;5063829;28;20040;-81
2022/10/19 02:07:07;;;;;;;9.75;2.42;;;10.40;99.90;;;;;;5047337;28;20051;-81
2022/10/19 02:09:32;;;;;;;;;;;10.50;99.90;;;;;;5049399;28;20059;-82
2022/10/19 02:12:02;;;;;;;4.30;2.30;;;10.40;99.90;;;;;;5062271;28;20126;-82
2022/10/19 02:14:38;;;;;;;6.75;2.60;;;10.50;99.90;;;;;;5043391;28;20117;-82
2022/10/19 02:17:13;;;;;;;6.68;2.83;;;10.50;99.90;;;;;;5065199;28;20037;-82
2022/10/19 02:19:39;;;;;;;7.57;3.03;;;10.50;99.90;;;;;;5063910;28;20517;-82
2022/10/19 02:22:06;;;;;;;5.70;3.08;;;10.60;99.90;;;;;;5061302;28;20106;-82
2022/10/19 02:24:32;;;;;;;8.90;3.10;;;10.50;99.90;;;;;;5060569;28;20167;-82
2022/10/19 02:26:59;;;;;;;9.07;3.47;;;10.60;99.90;;;;;;5062456;28;20119;-81
2022/10/19 02:29:25;;;;;;;;;;;10.50;99.90;;;;;;5060057;28;20045;-82
2022/10/19 02:31:51;;;;;;;8.77;3.60;;;10.60;99.90;;;;;;5046615;28;19920;-82
2022/10/19 02:34:17;;;;;;;9.45;3.60;;;10.50;99.90;;;;;;5062617;28;20055;-82
2022/10/19 02:36:43;;;;;;;9.02;3.80;;;10.50;99.90;;;;;;5041025;28;20037;-81
2022/10/19 02:39:08;;;;;;;7.47;3.60;;;10.50;99.90;;;;;;5059555;28;20036;-81
2022/10/19 02:42:07;;;;;;;11.43;4.07;;;10.60;99.90;;;;;;5065272;28;20557;-82
2022/10/19 02:44:41;;;;;;;11.18;4.57;;;10.70;99.90;;;;;;5041938;28;20049;-81
2022/10/19 02:47:13;;;;;;;8.30;3.85;;;10.70;99.90;;;;;;5062811;28;20034;-82
2022/10/19 02:49:40;;;;;;;10.40;4.03;;;10.60;99.90;;;;;;5044962;28;20507;-82
2022/10/19 02:52:08;;;;;;;9.93;3.78;;;10.80;99.90;;;;;;5066236;28;20036;-82
2022/10/19 02:54:35;;;;;;;10.88;3.75;;;10.70;99.90;;;;;;5046910;28;20108;-82
2022/10/19 02:57:31;;;;;;;9.38;3.67;;;10.70;99.90;;;;;;5038120;28;20041;-82
2022/10/19 02:59:57;;;;;;;10.75;3.92;;;10.70;99.90;;;;;;5045071;28;20187;-82
2022/10/19 03:02:23;;;;;;;9.95;3.55;;;10.70;99.90;;;;;;5044789;28;20118;-82
2022/10/19 03:04:49;;;;;;;7.78;3.40;;;10.70;99.90;;;;;;5043868;28;20062;-82
2022/10/19 03:07:17;;;;;;;11.25;3.63;;;10.70;99.90;;;;;;5066348;28;20087;-82
2022/10/19 03:09:43;;;;;;;8.55;3.45;;;10.70;99.90;;;;;;5060051;28;20036;-82
2022/10/19 03:12:10;;;;;;;10.20;3.43;;;10.70;99.90;;;;;;5063981;28;20052;-82
2022/10/19 03:14:35;;;;;;;11.38;3.72;;;10.60;99.90;;;;;;5045864;28;20053;-83
2022/10/19 03:17:01;;;;;;;6.28;2.80;;;10.60;99.90;;;;;;5039894;28;20479;-82
2022/10/19 03:19:27;;;;;;;9.40;3.38;;;10.60;99.90;;;;;;5060112;28;20045;-82
2022/10/19 03:21:52;;;;;;;8.80;3.95;;;10.60;99.90;;;;;;5063108;28;20048;-81
2022/10/19 03:24:18;;;;;;;7.95;3.33;;;10.70;99.90;;;;;;5060436;28;20963;-82
2022/10/19 03:26:44;;;;;;;8.43;3.28;;;10.60;99.90;;;;;;5040688;28;20129;-82
2022/10/19 03:29:09;;;;;;;10.93;3.80;;;10.70;99.90;;;;;;5061746;28;20045;-82
2022/10/19 03:31:35;;;;;;;8.38;3.50;;;10.80;99.90;;;;;;5056358;28;20044;-82
2022/10/19 03:34:01;;;;;;;7.82;3.63;;;10.60;99.90;;;;;;5058980;28;20475;-82
2022/10/19 03:36:29;;;;;;;8.40;3.58;;;10.70;99.90;;;;;;5062167;28;20047;-82
2022/10/19 03:38:57;;;;;;;11.00;3.17;;;10.60;99.90;;;;;;5042421;28;20131;-81
2022/10/19 03:41:27;;;;;;;7.90;2.95;;;10.60;99.90;;;;;;5044368;28;20045;-79
2022/10/19 03:43:52;;;;;;;11.40;3.35;;;10.70;99.90;;;;;;5059014;28;20036;-79
2022/10/19 03:46:19;;;;;;;6.10;2.88;;;10.60;99.90;;;;;;5044697;28;20054;-79
2022/10/19 03:48:45;;;;;;;9.77;3.20;;;10.60;99.90;;;;;;5042092;28;20044;-79
2022/10/19 03:51:15;;;;;;;7.50;3.08;;;10.70;99.90;;;;;;5045724;28;20036;-79
2022/10/19 03:53:41;;;;;;;6.68;2.78;;;10.60;99.90;;;;;;5045106;28;20123;-79
2022/10/19 03:56:11;;;;;;;8.65;3.20;;;10.60;99.90;;;;;;5063653;28;20131;-79
2022/10/19 03:58:38;;;;;;;9.63;2.80;;;10.50;99.90;;;;;;5061699;28;20052;-79
2022/10/19 04:01:13;;;;;;;4.82;2.40;;;10.50;99.90;;;;;;5044166;28;20060;-79
2022/10/19 04:03:38;;;;;;;10.40;2.40;;;10.60;99.90;;;;;;5055146;28;20156;-79
2022/10/19 04:06:25;;;;;;;10.23;2.88;;;10.50;99.90;;;;;;5063640;28;20132;-79
2022/10/19 04:08:51;;;;;;;5.78;2.60;;;10.50;99.90;;;;;;5059035;28;20125;-79
2022/10/19 04:11:21;;;;;;;8.23;2.42;;;10.40;99.90;;;;;;5063504;28;20053;-79
2022/10/19 04:13:49;;;;;;;11.30;2.60;;;10.40;99.90;;;;;;5045106;28;20130;-78
2022/10/19 04:16:15;;;;;;;10.85;2.65;;;10.40;99.90;;;;;;5061342;28;20051;-79
2022/10/19 04:18:41;;;;;;;7.30;2.60;;;10.40;99.90;;;;;;5059918;28;20048;-79
2022/10/19 04:21:22;;;;;;;10.10;2.55;;;10.30;99.90;;;;;;5061770;28;20033;-79
2022/10/19 04:23:49;;;;;;;5.72;2.20;;;10.40;99.90;;;;;;5040399;28;20046;-79
2022/10/19 04:26:15;;;;;;;7.97;2.33;;;10.30;99.90;;;;;;5043640;28;20119;-79
2022/10/19 04:28:40;;;;;;;9.52;2.40;;;10.30;99.90;;;;;;5043870;28;20123;-78
2022/10/19 04:31:06;;;;;;;8.98;2.38;;;10.40;99.90;;;;;;5066826;28;20174;-79
2022/10/19 04:33:33;;;;;;;10.15;2.97;;;10.30;99.90;;;;;;5066748;28;20121;-79
2022/10/19 04:36:05;;;;;;;7.65;2.45;;;10.20;99.90;;;;;;5059653;28;21035;-79
2022/10/19 04:38:30;;;;;;;8.32;2.53;;;10.20;99.90;;;;;;5048757;28;20403;-79
2022/10/19 04:41:08;;;;;;;7.05;2.63;;;10.20;99.90;;;;;;5064862;28;20040;-79
2022/10/19 04:43:34;;;;;;;7.70;2.35;;;10.30;99.90;;;;;;5049317;28;20044;-79
2022/10/19 04:46:07;;;;;;;8.50;2.25;;;10.20;99.90;;;;;;5050684;28;20052;-80
2022/10/19 04:48:35;;;;;;;5.88;2.50;;;10.20;99.90;;;;;;5049034;28;20040;-79
2022/10/19 04:51:01;;;;;;;8.95;2.63;;;10.20;99.90;;;;;;5051513;28;20040;-78
2022/10/19 04:53:27;;;;;;;11.32;3.00;;;10.30;99.90;;;;;;5066167;28;20091;-79
2022/10/19 04:55:53;;;;;;;10.55;2.47;;;10.20;99.90;;;;;;5066782;28;20076;-79
2022/10/19 04:58:18;;;;;;;11.30;2.58;;;10.20;99.90;;;;;;5061911;28;20779;-79
2022/10/19 05:00:44;;;;;;;10.15;2.53;;;10.30;99.90;;;;;;5062918;28;20536;-79
2022/10/19 05:03:10;;;;;;;9.27;2.60;;;10.30;99.90;;;;;;5064332;28;20072;-79
2022/10/19 05:05:35;;;;;;;7.32;2.33;;;10.40;99.90;;;;;;5065080;28;20127;-79
2022/10/19 05:08:01;;;;;;;9.70;2.20;;;10.40;99.90;;;;;;5044485;28;20051;-79
2022/10/19 05:10:27;;;;;;;7.05;2.28;;;10.50;99.90;;;;;;5045125;28;20476;-78
2022/10/19 05:12:52;;;;;;;6.78;2.45;;;10.40;99.90;;;;;;5046694;28;20117;-79
2022/10/19 05:15:18;;;;;;;7.45;2.28;;;10.50;99.90;;;;;;5066704;28;20056;-79
2022/10/19 05:17:44;;;;;;;5.25;2.20;;;10.50;99.90;;;;;;5048042;28;20854;-79
2022/10/19 05:20:10;;;;;;;6.85;2.17;;;10.40;99.90;;;;;;5064374;28;20080;-79
2022/10/19 05:22:37;;;;;;;9.20;2.25;;;10.40;99.90;;;;;;5039886;28;20083;-79
2022/10/19 05:25:03;;;;;;;13.27;2.97;;;10.40;99.90;;;;;;5046277;28;20055;-79
2022/10/19 05:27:28;;;;;;;10.05;2.70;;;10.50;99.90;;;;;;5045125;28;20045;-79
2022/10/19 05:29:54;;;;;;;8.18;2.08;;;10.50;99.90;;;;;;5042623;28;20813;-83
2022/10/19 05:32:20;;;;;;;7.72;2.55;;;10.60;99.90;;;;;;5064436;28;20052;-82
2022/10/19 05:34:45;;;;;;;8.95;2.30;;;10.50;99.90;;;;;;5061525;28;20044;-82
2022/10/19 05:37:11;;;;;;;11.85;2.45;;;10.50;99.90;;;;;;5043514;28;20051;-82
2022/10/19 05:39:36;;;;;;;8.18;2.50;;;10.50;99.90;;;;;;5044944;28;20052;-82
2022/10/19 05:42:02;;;;;;;7.50;2.85;;;10.50;99.90;;;;;;5062359;28;20559;-82
2022/10/19 05:44:28;;;;;;;8.45;2.20;;;10.50;99.90;;;;;;5061982;28;20456;-81
2022/10/19 05:46:53;;;;;;;8.77;2.00;;;10.50;99.90;;;;;;5062570;28;20507;-82
2022/10/19 05:49:20;;;;;;;8.68;2.60;;;10.50;99.90;;;;;;5065591;28;20056;-82
2022/10/19 05:51:46;;;;;;;9.10;2.67;;;10.50;99.90;;;;;;5064724;28;20044;-82
2022/10/19 05:54:13;;;;;;;8.55;2.20;;;10.50;99.90;;;;;;5065653;28;20047;-82
2022/10/19 05:56:40;;;;;;;9.48;2.35;;;10.50;99.90;;;;;;5046469;28;20131;-82
2022/10/19 05:59:07;;;;;;;10.17;2.30;;;10.40;99.90;;;;;;5045395;28;20045;-78
2022/10/19 06:01:34;;;;;;;12.20;2.67;;;10.40;99.90;;;;;;5060177;28;20467;-83
2022/10/19 06:04:01;;;;;;;12.15;2.83;;;10.40;99.90;;;;;;5043334;28;20055;-82
2022/10/19 06:06:27;;;;;;;8.00;2.63;;;10.40;99.90;;;;;;5064568;28;20086;-83
2022/10/19 06:08:57;;;;;;;11.25;2.90;;;10.40;99.90;;;;;;5045908;28;20072;-83
2022/10/19 06:11:35;;;;;;;10.65;2.67;;;10.40;99.90;;;;;;5043944;28;20071;-82
2022/10/19 06:14:03;;;;;;;8.80;2.75;;;10.40;99.90;;;;;;5064179;28;20403;-82
2022/10/19 06:16:30;;;;;;;9.43;2.58;;;10.40;99.90;;;;;;5047406;28;21010;-83
2022/10/19 06:18:57;;;;;;;12.60;2.70;;;10.40;99.90;;;;;;5046525;28;20040;-82
2022/10/19 06:21:27;;;;;;;12.68;3.58;;;10.40;99.90;;;;;;5044872;28;20029;-82
2022/10/19 06:23:56;;;;;;;7.95;2.70;;;10.50;99.90;;;;;;5039234;28;20117;-83
2022/10/19 06:26:23;;;;;;;11.18;2.95;;;10.40;99.90;;;;;;5048161;28;20044;-82
2022/10/19 06:28:49;;;;;;;13.02;3.15;;;10.40;99.90;;;;;;5059471;28;20048;-82
2022/10/19 06:31:16;;;;;;;10.90;2.90;;;10.40;99.90;;;;;;5041704;28;20052;-82
2022/10/19 06:33:43;;;;;;;12.17;3.57;;;10.40;99.90;;;;;;5057878;28;20052;-82
2022/10/19 06:36:15;;;;;;;10.13;3.10;;;10.40;99.90;;;;;;5065463;28;20045;-83
2022/10/19 06:38:41;;;;;;;11.07;3.60;;;10.40;99.90;;;;;;5039787;28;20086;-82
2022/10/19 06:41:07;;;;;;;11.25;3.00;;;10.40;99.90;;;;;;5042526;28;20381;-82
2022/10/19 06:43:34;;;;;;;10.50;3.10;;;10.50;99.90;;;;;;5047937;28;20051;-84
2022/10/19 06:46:22;;;;;;;9.10;3.40;;;10.50;99.90;;;;;;5067333;28;20554;-83
2022/10/19 06:48:56;;;;;;;12.10;3.45;;;10.50;99.90;;;;;;5044644;28;20495;-82
2022/10/19 06:51:24;;;;;;;12.50;4.00;;;10.50;99.90;;;;;;5045408;28;20391;-83
2022/10/19 06:53:51;;;;;;;12.95;3.85;;;10.40;99.90;;;;;;5047896;28;20052;-83
2022/10/19 06:56:17;;;;;;;13.23;3.28;;;10.50;99.90;;;;;;5062415;28;20041;-82
2022/10/19 06:58:43;;;;;;;10.35;3.28;;;10.50;99.90;;;;;;5062833;28;20040;-82
2022/10/19 07:01:09;;;;;;;10.40;3.05;;;10.60;99.90;;;;;;5061431;28;20033;-82
2022/10/19 07:03:35;;;;;;;12.50;3.13;;;10.60;99.90;;;;;;5063614;28;20048;-82
2022/10/19 07:06:12;;;;;;;10.05;3.00;;;10.60;99.90;;;;;;5044094;28;20531;-81
2022/10/19 07:08:39;;;;;;;13.52;3.03;;;10.60;99.90;;;;;;5061169;28;20090;-82
2022/10/19 07:11:08;;;;;;;10.85;2.92;;;10.50;99.90;;;;;;5045493;28;20045;-81
2022/10/19 07:13:34;;;;;;;14.30;3.00;;;10.70;99.90;;;;;;5055576;28;20049;-79
2022/10/19 07:16:06;;;;;;;10.88;2.90;;;10.60;99.90;;;;;;5044458;28;20420;-84
2022/10/19 07:18:34;;;;;;;12.57;2.92;;;10.70;99.90;;;;;;5045829;28;20033;-79
2022/10/19 07:21:04;;;;;;;9.82;3.03;;;10.70;99.90;;;;;;5054686;28;21851;-81
2022/10/19 07:23:31;;;;;;;8.43;2.33;;;10.70;99.90;;;;;;5060412;28;20041;-77
2022/10/19 07:26:02;;;;;;;10.48;2.47;;;10.80;99.90;;;;;;5062113;28;20051;-80
2022/10/19 07:28:29;;;;;;;12.88;2.60;;;10.80;99.90;;;;;;5051719;28;20086;-81
2022/10/19 07:30:55;;;;;;;11.57;2.80;;;10.80;99.90;;;;;;5065569;28;20875;-88
2022/10/19 07:33:20;;;;;;;12.25;3.05;;;10.90;99.90;;;;;;5080403;28;20092;-90
2022/10/19 07:35:47;;;;;;;15.65;3.53;;;10.90;99.90;;;;;;5076868;28;20043;-86
2022/10/19 07:38:12;;;;;;;13.55;3.45;;;10.90;99.90;;;;;;5071349;28;20041;-80
2022/10/19 07:40:38;;;;;;;12.57;2.78;;;11.00;99.90;;;;;;5054185;28;20126;-82
2022/10/19 07:43:04;;;;;;;10.52;2.35;;;11.00;99.90;;;;;;5045673;28;20045;-84
2022/10/19 07:45:31;;;;;;;10.02;2.28;;;11.00;99.90;;;;;;5062583;28;20044;-86
2022/10/19 07:47:57;;;;;;;10.68;2.08;;;11.10;99.90;;;;;;5065878;28;20057;-86
2022/10/19 07:50:24;;;;;;;12.93;2.65;;;11.30;99.90;;;;;;5066331;28;20040;-84
2022/10/19 07:52:51;;;;;;;15.73;2.57;;;11.30;99.90;;;;;;5065706;28;20036;-86
2022/10/19 07:55:16;;;;;;;15.85;2.88;;;11.30;99.90;;;;;;5069278;28;20389;-83
2022/10/19 07:57:45;;;;;;;12.82;2.80;;;11.40;99.90;;;;;;5063373;28;20167;-80
2022/10/19 08:00:11;;;;;;;11.30;2.10;;;11.40;99.90;;;;;;5061037;28;20071;-84
2022/10/19 08:02:41;;;;;;;10.05;2.10;;;11.50;99.90;;;;;;5049082;28;20040;-81
2022/10/19 08:05:07;;;;;;;13.18;2.47;;;11.50;99.90;;;;;;5038489;28;20064;-84
2022/10/19 08:07:33;;;;;;;11.75;2.25;;;11.60;99.90;;;;;;5063150;28;20032;-80
2022/10/19 08:09:59;;;;;;;15.32;2.58;;;11.60;99.90;;;;;;5060785;28;20040;-77
2022/10/19 08:12:25;;;;;;;12.82;2.60;;;11.80;99.90;;;;;;5046514;28;20040;-79
2022/10/19 08:14:52;;;;;;;11.73;2.72;;;11.70;99.90;;;;;;5065971;28;20139;-83
2022/10/19 08:17:17;;;;;;;12.55;1.90;;;11.80;99.90;;;;;;5049101;28;20060;-82
2022/10/19 08:19:44;;;;;;;17.77;2.28;;;11.80;99.90;;;;;;5064828;28;20041;-81
2022/10/19 08:22:10;;;;;;;13.45;2.67;;;11.90;99.90;;;;;;5064787;28;20036;-81
2022/10/19 08:24:36;;;;;;;15.52;2.55;;;11.90;99.90;;;;;;5066400;28;20051;-85
2022/10/19 08:27:01;;;;;;;12.63;2.78;;;11.90;99.90;;;;;;5059943;28;20155;-78
2022/10/19 08:29:27;;;;;;;11.88;2.13;;;12.00;99.90;;;;;;5065555;28;20033;-81
2022/10/19 08:31:53;;;;;;;13.63;2.60;;;12.00;99.90;;;;;;5066185;28;20053;-84
2022/10/19 08:34:20;;;;;;;14.15;2.17;;;12.00;99.90;;;;;;5041979;28;20052;-83
2022/10/19 08:36:47;;;;;;;10.63;2.47;;;12.10;99.90;;;;;;5059992;28;20044;-81
2022/10/19 08:39:13;;;;;;;13.95;2.80;;;12.10;99.90;;;;;;5065230;28;20032;-85
2022/10/19 08:41:39;;;;;;;14.10;3.30;;;12.20;99.90;;;;;;5044021;28;20048;-81
2022/10/19 08:44:29;;;;;;;16.08;2.50;;;12.10;99.90;;;;;;5064308;28;20045;-82
2022/10/19 08:47:28;;;;;;;12.48;2.05;;;12.20;99.90;;;;;;5066378;28;20056;-81
2022/10/19 08:49:55;;;;;;;12.25;2.35;;;12.30;99.90;;;;;;5063132;28;20056;-80
2022/10/19 08:52:25;;;;;;;15.40;3.28;;;12.20;99.90;;;;;;5041352;28;20369;-80
2022/10/19 08:55:01;;;;;;;11.95;1.98;;;12.30;99.90;;;;;;5043079;28;20055;-79
2022/10/19 08:57:36;;;;;;;13.23;1.90;;;12.40;99.90;;;;;;5064140;28;20029;-75
2022/10/19 09:00:23;;;;;;;13.50;2.20;;;12.40;99.90;;;;;;5057229;28;20048;-76
2022/10/19 09:03:00;;;;;;;11.38;2.30;;;12.40;99.90;;;;;;5063880;28;20040;-84
2022/10/19 09:05:26;;;;;;;15.65;3.33;;;12.50;99.90;;;;;;5045971;28;20057;-84
2022/10/19 09:07:53;;;;;;;14.32;3.15;;;12.50;99.90;;;;;;5064658;28;20072;-82
2022/10/19 09:10:31;;;;;;;12.23;2.72;;;12.60;99.90;;;;;;5051420;28;20947;-81
2022/10/19 09:12:59;;;;;;;11.10;2.13;;;12.60;99.90;;;;;;5063896;28;20125;-81
2022/10/19 09:15:32;;;;;;;8.60;1.73;;;12.70;99.90;;;;;;5059064;28;20064;-81
2022/10/19 09:17:59;;;;;;;10.02;2.10;;;12.70;99.90;;;;;;5061750;28;20048;-81
2022/10/19 09:20:33;;;;;;;11.40;2.20;;;12.80;99.90;;;;;;5048476;28;20040;-78
2022/10/19 09:23:28;;;;;;;9.55;1.67;;;12.80;99.90;;;;;;5054430;28;20040;-85
2022/10/19 09:25:56;;;;;;;9.40;2.30;;;12.80;99.90;;;;;;5062103;28;20817;-79
2022/10/19 09:28:49;;;;;;;10.90;2.08;;;12.90;99.90;;;;;;5066548;28;20071;-82
2022/10/19 09:31:27;;;;;;;9.68;2.00;;;12.90;99.90;;;;;;5068700;28;20749;-81
2022/10/19 09:34:26;;;;;;;11.85;1.85;;;13.00;99.90;;;;;;5032403;28;20095;-82
2022/10/19 09:36:55;;;;;;;12.30;1.80;;;13.00;99.90;;;;;;5026379;28;20102;-84
2022/10/19 09:39:22;;;;;;;10.73;1.80;;;13.00;99.90;;;;;;5050995;28;20044;-82
2022/10/19 09:41:58;;;;;;;9.67;1.63;;;13.10;99.90;;;;;;5068024;28;20042;-80
2022/10/19 09:44:25;;;;;;;11.20;2.15;;;13.10;99.90;;;;;;5045632;28;20044;-81
2022/10/19 09:47:01;;;;;;;9.35;1.95;;;13.20;99.90;;;;;;5064161;28;20070;-81
2022/10/19 09:49:45;;;;;;;7.90;1.45;;;13.30;99.90;;;;;;5066356;28;20048;-80
2022/10/19 09:53:02;;;;;;;9.32;2.03;;;13.40;99.90;;;;;;5050376;28;20120;-76
2022/10/19 09:55:41;;;;;;;10.55;1.80;;;13.50;99.90;;;;;;5038526;28;20056;-82
2022/10/19 09:58:13;;;;;;;6.88;1.63;;;13.50;99.90;;;;;;5049785;28;20052;-82
2022/10/19 10:00:49;;;;;;;10.75;1.80;;;13.50;99.90;;;;;;5064845;28;20053;-80
2022/10/19 10:03:34;;;;;;;11.07;1.92;;;13.50;99.90;;;;;;5044712;28;20036;-82
2022/10/19 10:06:13;;;;;;;8.45;2.00;;;13.50;99.90;;;;;;5050057;28;20052;-82
2022/10/19 10:08:57;;;;;;;14.43;2.00;;;13.50;99.90;;;;;;5046820;28;20113;-84
2022/10/19 10:11:36;;;;;;;8.82;1.92;;;13.50;99.90;;;;;;5067883;28;20041;-85
2022/10/19 10:14:17;;;;;;;12.32;2.20;;;13.50;99.90;;;;;;5048015;28;20047;-78
2022/10/19 10:16:44;;;;;;;9.63;1.58;;;13.50;99.90;;;;;;5065623;28;20044;-74
2022/10/19 10:19:13;;;;;;;7.35;1.52;;;13.50;99.90;;;;;;5066522;28;20059;-73
2022/10/19 10:21:53;;;;;;;9.10;1.90;;;13.50;99.90;;;;;;5066363;28;20040;-80
2022/10/19 10:24:21;;;;;;;7.82;2.00;;;13.50;99.90;;;;;;5068016;28;20533;-79
2022/10/19 10:26:50;;;;;;;9.93;1.50;;;13.50;99.90;;;;;;5061785;28;20036;-74
2022/10/19 10:29:28;;;;;;;11.38;1.95;;;13.60;99.90;;;;;;5064479;28;20047;-79
2022/10/19 10:32:18;;;;;;;11.77;2.30;;;13.50;99.90;;;;;;5049279;28;20114;-81
2022/10/19 10:34:47;;;;;;;13.30;2.13;;;13.50;99.90;;;;;;5064378;28;20506;-78
2022/10/19 10:37:37;;;;;;;9.18;1.90;;;13.50;99.90;;;;;;5063518;28;20425;-79
2022/10/19 10:40:05;;;;;;;8.02;1.52;;;13.50;99.90;;;;;;5043874;28;20064;-78
2022/10/19 10:42:40;;;;;;;6.88;1.45;;;13.50;99.90;;;;;;5042745;28;20055;-79
2022/10/19 10:45:35;;;;;;;7.45;1.70;;;13.60;99.90;;;;;;5062263;28;20051;-79
2022/10/19 10:48:34;;;;;;;8.75;1.50;;;13.60;99.90;;;;;;5034430;28;20056;-81
2022/10/19 10:51:01;;;;;;;7.55;1.70;;;13.60;99.90;;;;;;5048024;28;20140;-82
2022/10/19 10:53:42;;;;;;;8.77;1.80;;;13.60;99.90;;;;;;5045778;28;20055;-81
2022/10/19 10:56:22;;;;;;;11.05;2.42;;;13.60;99.90;;;;;;5062857;28;20388;-83
2022/10/19 10:58:50;;;;;;;10.05;2.03;;;13.60;99.90;;;;;;5062100;28;20064;-84
2022/10/19 11:01:22;;;;;;;8.52;1.75;;;13.70;99.90;;;;;;5046485;28;20143;-86
2022/10/19 11:04:03;;;;;;;9.02;1.75;;;13.70;99.90;;;;;;5066262;28;20059;-84
2022/10/19 11:06:31;;;;;;;9.55;1.70;;;13.80;99.90;;;;;;5061946;28;20365;-83
2022/10/19 11:09:16;;;;;;;8.15;1.90;;;13.80;99.90;;;;;;5058236;28;20079;-84
2022/10/19 11:11:45;;;;;;;10.25;2.13;;;14.00;99.90;;;;;;5044614;28;20109;-83
2022/10/19 11:14:37;;;;;;;7.82;2.10;;;14.10;99.90;;;;;;5062033;28;20060;-84
2022/10/19 11:17:18;;;;;;;7.72;2.00;;;14.20;99.90;;;;;;5046896;28;20043;-83
2022/10/19 11:19:45;;;;;;;6.65;1.88;;;14.20;99.90;;;;;;5065073;28;20648;-83
2022/10/19 11:22:17;;;;;;;10.32;2.35;;;14.20;99.90;;;;;;5043408;28;20172;-85
2022/10/19 11:25:19;;;;;;;8.55;1.98;;;14.20;99.90;;;;;;5065909;28;20044;-85
2022/10/19 11:28:14;;;;;;;9.23;2.30;;;14.20;99.90;;;;;;5067007;28;20393;-85
2022/10/19 11:30:54;;;;;;;7.38;1.90;;;14.10;99.90;;;;;;5064872;28;20044;-84
2022/10/19 11:33:38;;;;;;;7.38;2.08;;;14.00;99.90;;;;;;5067492;28;20056;-78
2022/10/19 11:36:34;;;;;;;7.90;2.10;;;14.00;99.90;;;;;;5062237;28;20033;-79
2022/10/19 11:39:30;;;;;;;8.85;2.58;;;13.90;99.90;;;;;;5068030;28;20047;-83
2022/10/19 11:42:11;;;;;;;8.20;2.30;;;13.90;99.90;;;;;;5065288;28;20048;-83
2022/10/19 11:45:11;;;;;;;10.57;2.40;;;13.90;99.90;;;;;;5058865;28;20664;-79
2022/10/19 11:47:49;;;;;;;7.55;2.25;;;14.00;99.90;;;;;;5043969;28;20123;-78
2022/10/19 11:50:24;;;;;;;9.15;2.80;;;14.00;99.90;;;;;;5046651;28;20072;-79
2022/10/19 11:53:33;;;;;;;6.03;1.92;;;14.10;99.90;;;;;;5045994;28;20052;-78
2022/10/19 11:56:12;;;;;;;9.50;2.67;;;14.20;99.90;;;;;;5023850;28;20417;-78
2022/10/19 11:58:47;;;;;;;9.35;2.60;;;14.30;99.90;;;;;;5031174;28;20053;-78
2022/10/19 12:01:23;;;;;;;10.02;2.70;;;14.30;99.90;;;;;;5063936;28;20043;-78
2022/10/19 12:04:11;;;;;;;9.48;2.50;;;14.30;99.90;;;;;;5047366;28;20072;-78
2022/10/19 12:07:14;;;;;;;9.98;2.63;;;14.30;99.90;;;;;;5045680;28;20052;-78
2022/10/19 12:10:31;;;;;;;6.95;2.20;;;14.40;99.90;;;;;;5063843;28;20109;-78
2022/10/19 12:13:00;;;;;;;;;;;14.60;99.90;;;;;;5053707;28;20140;-77
2022/10/19 12:15:37;;;;;;;8.25;2.60;;;14.60;99.90;;;;;;5061740;28;19920;-78
2022/10/19 12:18:34;;;;;;;9.18;2.15;;;14.60;99.90;;;;;;5064715;28;20121;-78
2022/10/19 12:21:06;;;;;;;9.75;2.45;;;14.50;99.90;;;;;;5031445;28;20105;-78
2022/10/19 12:23:36;;;;;;;11.70;2.45;;;14.50;99.90;;;;;;5061874;28;20037;-77
2022/10/19 12:26:06;;;;;;;8.57;2.47;;;14.50;99.90;;;;;;5042636;28;20085;-78
2022/10/19 12:28:35;;;;;;;7.95;2.20;;;14.40;99.90;;;;;;5063287;28;20052;-78
2022/10/19 12:31:03;;;;;;;8.10;2.22;;;14.30;99.90;;;;;;5066066;28;20123;-78
2022/10/19 12:33:35;;;;;;;12.20;2.55;;;14.30;99.90;;;;;;5044670;28;20612;-78
2022/10/19 12:36:15;;;;;;;7.15;2.50;;;14.30;99.90;;;;;;5061104;28;20051;-77
2022/10/19 12:39:14;;;;;;;8.75;2.83;;;14.40;99.90;;;;;;5045766;28;20135;-77
2022/10/19 12:42:09;;;;;;;7.45;2.28;;;14.30;99.90;;;;;;5063506;28;20059;-77
2022/10/19 12:44:43;;;;;;;7.05;2.42;;;14.30;99.90;;;;;;5056420;28;20044;-77
2022/10/19 12:47:14;;;;;;;12.30;2.75;;;14.30;99.90;;;;;;5060679;28;20036;-78
2022/10/19 12:49:48;;;;;;;10.32;3.10;;;14.30;99.90;;;;;;5037142;28;20049;-78
2022/10/19 12:52:35;;;;;;;8.85;2.65;;;14.40;99.90;;;;;;5064653;28;20044;-80
2022/10/19 12:55:33;;;;;;;7.47;3.15;;;14.30;99.90;;;;;;5051576;28;20062;-78
2022/10/19 12:58:20;;;;;;;7.55;3.40;;;14.30;99.90;;;;;;5066508;28;20544;-79
2022/10/19 13:00:58;;;;;;;9.55;3.80;;;14.20;99.90;;;;;;5042325;28;20044;-79
2022/10/19 13:03:30;;;;;;;11.10;4.00;;;14.20;99.90;;;;;;5047806;28;20044;-82
2022/10/19 13:05:58;;;;;;;10.48;4.70;;;14.10;99.90;;;;;;5062678;28;20671;-81
2022/10/19 13:08:37;;;;;;;10.48;5.30;;;14.10;99.90;;;;;;5066139;28;20078;-80
2022/10/19 13:11:05;;;;;;;11.20;4.88;;;14.10;99.90;;;;;;5063746;28;20055;-81